Time;durP1;ratioP1;P1;durP2;ratioP2;P2;SDS_P1;SDS_P2;PMS_P1;PMS_P2;Temp;Humidity;BMP_temperature;BMP_pressure;BME280_temperature;BME280_humidity;BME280_pressure;Samples;Min_cycle;Max_cycle;Signal;HPM_P1;HPM_P2
2021/06/17 00:00:06;;;;;;;2.22;0.90;;;;;;;18.17;71.37;99615.73;1708471;82;21134;-57
2021/06/17 00:02:32;;;;;;;2.77;0.90;;;;;;;18.20;71.41;99630.48;1712832;82;21101;-58
2021/06/17 00:04:59;;;;;;;5.03;0.90;;;;;;;18.20;71.39;99630.48;1712539;82;20920;-58
2021/06/17 00:07:25;;;;;;;6.78;0.82;;;;;;;18.20;71.40;99631.34;1734370;82;21753;-57
2021/06/17 00:09:51;;;;;;;8.05;1.20;;;;;;;18.19;71.45;99630.97;1701135;83;21339;-58
2021/06/17 00:12:18;;;;;;;3.45;0.78;;;;;;;18.20;71.50;99629.13;1708099;82;21055;-58
2021/06/17 00:14:45;;;;;;;3.92;1.10;;;;;;;18.21;71.55;99637.14;1731093;81;21156;-58
2021/06/17 00:17:11;;;;;;;2.77;0.70;;;;;;;18.21;71.61;99633.55;1732630;82;21168;-58
2021/06/17 00:19:39;;;;;;;1.92;0.80;;;;;;;18.23;71.75;99639.75;1731309;82;21696;-58
2021/06/17 00:22:07;;;;;;;3.27;1.10;;;;;;;18.23;71.84;99630.20;1733565;81;21562;-58
2021/06/17 00:24:34;;;;;;;1.12;0.70;;;;;;;18.23;71.87;99631.08;1708146;82;21267;-57
2021/06/17 00:27:00;;;;;;;6.28;0.80;;;;;;;18.22;71.86;99633.43;1705244;82;21133;-56
2021/06/17 00:29:27;;;;;;;2.87;1.07;;;;;;;18.20;71.84;99635.93;1700938;83;21093;-57
2021/06/17 00:31:53;;;;;;;1.50;0.62;;;;;;;18.17;71.89;99631.59;1733646;81;21080;-57
2021/06/17 00:34:20;;;;;;;1.12;0.70;;;;;;;18.15;71.92;99630.84;1731056;81;21041;-57
2021/06/17 00:36:46;;;;;;;3.33;0.80;;;;;;;18.10;71.91;99623.05;1734869;82;21677;-57
2021/06/17 00:39:13;;;;;;;4.50;0.70;;;;;;;18.04;72.01;99616.72;1732347;81;21610;-56
2021/06/17 00:41:40;;;;;;;4.70;1.20;;;;;;;18.00;72.07;99624.78;1732226;82;21045;-57
2021/06/17 00:44:07;;;;;;;2.55;0.80;;;;;;;17.98;72.18;99623.16;1729806;82;21105;-57
2021/06/17 00:46:34;;;;;;;5.37;0.90;;;;;;;17.95;72.33;99626.99;1731496;82;21065;-55
2021/06/17 00:49:01;;;;;;;8.13;1.00;;;;;;;17.94;72.29;99634.82;1735316;81;20879;-57
2021/06/17 00:51:27;;;;;;;6.10;0.80;;;;;;;17.92;72.30;99636.80;1736938;81;21097;-57
2021/06/17 00:53:54;;;;;;;3.17;0.80;;;;;;;17.91;72.36;99643.72;1728994;81;21117;-58
2021/06/17 00:56:20;;;;;;;5.28;0.75;;;;;;;17.87;72.49;99642.21;1720665;81;21352;-56
2021/06/17 00:58:46;;;;;;;4.65;0.70;;;;;;;17.84;72.58;99638.39;1695517;83;21560;-56
2021/06/17 01:01:13;;;;;;;3.75;0.78;;;;;;;17.83;72.73;99633.94;1725859;81;21061;-57
2021/06/17 01:03:40;;;;;;;1.72;0.62;;;;;;;17.83;72.84;99633.44;1726467;81;21140;-57
2021/06/17 01:06:06;;;;;;;3.45;1.10;;;;;;;17.85;72.96;99634.19;1724634;81;21152;-56
2021/06/17 01:08:49;;;;;;;1.98;0.80;;;;;;;17.89;72.56;99631.58;1725252;81;21128;-57
2021/06/17 01:11:53;;;;;;;2.30;0.80;;;;;;;17.97;72.35;99643.22;1723417;81;21042;-57
2021/06/17 01:14:25;;;;;;;1.98;0.93;;;;;;;18.02;72.08;99642.37;1726730;81;21441;-57
2021/06/17 01:17:04;;;;;;;3.92;0.80;;;;;;;18.09;71.33;99644.47;1725455;81;21113;-56
2021/06/17 01:19:36;;;;;;;4.03;0.95;;;;;;;18.16;70.91;99642.11;1689725;83;21054;-55
2021/06/17 01:22:14;;;;;;;3.85;0.90;;;;;;;18.21;71.04;99644.45;1680365;83;21094;-54
2021/06/17 01:25:11;;;;;;;1.35;0.70;;;;;;;18.23;70.79;99640.61;1681634;84;21151;-55
2021/06/17 01:28:04;;;;;;;1.12;0.72;;;;;;;18.27;70.84;99637.16;1690461;83;21665;-53
2021/06/17 01:30:32;;;;;;;3.77;0.88;;;;;;;18.30;70.29;99634.16;1726058;81;21810;-56
2021/06/17 01:33:01;;;;;;;1.80;0.80;;;;;;;18.34;69.87;99632.44;1723601;81;21478;-56
2021/06/17 01:35:29;;;;;;;3.58;1.00;;;;;;;18.36;69.66;99637.77;1732016;81;20919;-56
2021/06/17 01:37:57;;;;;;;3.17;0.90;;;;;;;18.39;69.38;99651.13;1730073;81;21531;-53
2021/06/17 01:40:25;;;;;;;1.42;0.70;;;;;;;18.43;69.15;99651.26;1723980;81;21700;-55
2021/06/17 01:42:52;;;;;;;5.12;0.90;;;;;;;18.46;68.79;99653.21;1725645;81;21844;-56
2021/06/17 01:45:19;;;;;;;3.95;0.90;;;;;;;18.50;68.69;99663.38;1724748;81;21002;-54
2021/06/17 01:47:47;;;;;;;3.62;0.70;;;;;;;18.53;68.40;99661.78;1699167;82;22202;-56
2021/06/17 01:50:13;;;;;;;4.12;1.00;;;;;;;18.56;68.31;99664.23;1722758;81;21081;-55
2021/06/17 01:52:40;;;;;;;1.30;0.72;;;;;;;18.59;68.29;99663.16;1727127;81;21753;-55
2021/06/17 01:55:08;;;;;;;2.62;0.80;;;;;;;18.62;68.14;99671.96;1721045;81;21086;-54
2021/06/17 01:57:34;;;;;;;1.12;0.90;;;;;;;18.64;67.95;99663.63;1720735;81;20967;-54
2021/06/17 02:00:01;;;;;;;6.92;1.52;;;;;;;18.65;68.05;99664.00;1722929;82;21133;-53
2021/06/17 02:02:28;;;;;;;2.30;1.20;;;;;;;18.66;68.06;99665.73;1721380;82;21078;-53
2021/06/17 02:04:55;;;;;;;5.85;0.90;;;;;;;18.64;68.08;99656.31;1719550;81;21394;-53
2021/06/17 02:07:24;;;;;;;2.15;1.00;;;;;;;18.62;68.05;99663.78;1756195;79;21471;-54
2021/06/17 02:09:52;;;;;;;1.42;0.90;;;;;;;18.59;67.94;99675.42;1759090;80;21014;-52
2021/06/17 02:12:19;;;;;;;2.58;0.70;;;;;;;18.59;67.71;99678.14;1760231;79;21054;-53
2021/06/17 02:14:47;;;;;;;0.90;0.70;;;;;;;18.62;67.68;99684.23;1763006;80;20970;-53
2021/06/17 02:17:17;;;;;;;2.52;0.88;;;;;;;18.64;67.67;99681.34;1759801;79;20914;-56
2021/06/17 02:19:43;;;;;;;1.15;0.80;;;;;;;18.67;67.59;99689.28;1760069;79;21137;-57
2021/06/17 02:22:10;;;;;;;1.12;0.80;;;;;;;18.69;67.66;99688.67;1759668;80;21982;-54
2021/06/17 02:24:38;;;;;;;1.20;0.90;;;;;;;18.71;67.43;99686.20;1758828;79;20888;-54
2021/06/17 02:27:14;;;;;;;5.67;0.80;;;;;;;18.74;67.33;99691.38;1760661;80;20966;-55
2021/06/17 02:29:46;;;;;;;2.27;1.00;;;;;;;18.76;67.37;99690.75;1739817;80;20982;-53
2021/06/17 02:32:18;;;;;;;1.70;0.80;;;;;;;18.78;67.39;99694.23;1759122;79;21973;-54
2021/06/17 02:34:49;;;;;;;1.40;0.60;;;;;;;18.82;67.50;99687.51;1757127;80;21429;-56
2021/06/17 02:37:16;;;;;;;2.00;0.70;;;;;;;18.84;67.32;99683.30;1756995;79;21802;-56
2021/06/17 02:39:43;;;;;;;1.02;0.70;;;;;;;18.86;67.45;99679.45;1760416;79;20907;-54
2021/06/17 02:42:10;;;;;;;1.20;0.80;;;;;;;18.88;67.82;99679.34;1757597;80;20982;-56
2021/06/17 02:44:36;;;;;;;2.95;0.82;;;;;;;18.87;67.65;99678.47;1757533;79;21086;-54
2021/06/17 02:47:04;;;;;;;2.45;0.80;;;;;;;18.86;67.38;99682.19;1762392;80;21005;-55
2021/06/17 02:49:30;;;;;;;1.60;0.70;;;;;;;18.88;67.43;99684.80;1757397;79;20922;-53
2021/06/17 02:51:56;;;;;;;2.05;0.90;;;;;;;18.90;67.42;99689.10;1762285;79;20899;-54
2021/06/17 02:54:23;;;;;;;4.40;0.80;;;;;;;18.92;67.36;99682.16;1761904;80;21418;-53
2021/06/17 02:57:22;;;;;;;2.77;0.95;;;;;;;18.92;67.29;99682.66;1699635;82;21046;-53
2021/06/17 03:00:06;;;;;;;2.45;0.80;;;;;;;18.93;67.43;99678.94;1758182;79;21107;-53
2021/06/17 03:03:05;;;;;;;1.32;0.70;;;;;;;18.94;67.44;99685.63;1759691;80;21501;-55
2021/06/17 03:05:52;;;;;;;2.33;0.80;;;;;;;18.97;67.33;99691.34;1755357;80;21018;-54
2021/06/17 03:08:23;;;;;;;1.87;0.85;;;;;;;18.97;67.17;99685.88;1760770;80;20942;-54
2021/06/17 03:10:52;;;;;;;1.95;0.80;;;;;;;19.00;67.28;99690.56;1760037;80;21118;-54
2021/06/17 03:13:23;;;;;;;1.55;0.80;;;;;;;19.06;67.27;99701.45;1757886;79;22515;-54
2021/06/17 03:15:51;;;;;;;2.45;0.70;;;;;;;19.10;67.25;99709.76;1754932;79;21541;-54
2021/06/17 03:18:18;;;;;;;1.67;1.00;;;;;;;19.14;67.04;99713.98;1754325;80;21488;-56
2021/06/17 03:20:45;;;;;;;1.07;0.70;;;;;;;19.18;67.33;99712.21;1758662;79;20981;-54
2021/06/17 03:23:15;;;;;;;0.75;0.70;;;;;;;19.23;67.24;99709.08;1731720;80;21678;-54
2021/06/17 03:25:48;;;;;;;1.00;0.78;;;;;;;19.28;67.59;99715.03;1755661;79;21082;-54
2021/06/17 03:28:15;;;;;;;4.35;0.80;;;;;;;19.34;68.27;99725.92;1735554;80;21583;-54
2021/06/17 03:30:45;;;;;;;1.35;0.88;;;;;;;19.39;67.95;99727.78;1755106;80;21066;-53
2021/06/17 03:33:12;;;;;;;1.35;0.98;;;;;;;19.43;67.96;99727.87;1756741;80;21146;-54
2021/06/17 03:35:38;;;;;;;1.90;0.90;;;;;;;19.47;67.41;99735.72;1755461;79;21186;-55
2021/06/17 03:38:04;;;;;;;2.45;1.10;;;;;;;19.50;67.25;99735.93;1733845;80;21062;-55
2021/06/17 03:40:31;;;;;;;2.62;0.95;;;;;;;19.53;67.06;99735.19;1757124;79;21101;-54
2021/06/17 03:42:57;;;;;;;1.80;1.15;;;;;;;19.56;66.90;99736.27;1752089;80;21583;-56
2021/06/17 03:45:26;;;;;;;4.35;1.00;;;;;;;19.58;66.83;99733.41;1710363;80;21559;-54
2021/06/17 03:47:53;;;;;;;1.20;0.80;;;;;;;19.59;66.80;99740.11;1755360;80;21118;-56
2021/06/17 03:50:21;;;;;;;2.15;0.90;;;;;;;19.62;66.93;99739.86;1755133;79;21385;-55
2021/06/17 03:52:47;;;;;;;3.75;0.80;;;;;;;19.64;67.05;99740.60;1733889;79;21050;-54
2021/06/17 03:55:16;;;;;;;2.02;0.90;;;;;;;19.68;67.22;99738.95;1758164;80;21463;-54
2021/06/17 03:57:43;;;;;;;2.05;0.88;;;;;;;19.72;67.35;99744.53;1763706;80;21029;-55
2021/06/17 04:00:11;;;;;;;1.02;0.80;;;;;;;19.81;67.31;99750.07;1762587;80;22081;-54
2021/06/17 04:02:38;;;;;;;2.35;0.85;;;;;;;19.90;66.95;99747.05;1736048;80;21041;-54
2021/06/17 04:05:06;;;;;;;4.87;0.90;;;;;;;19.97;66.74;99750.97;1763648;80;21029;-56
2021/06/17 04:07:32;;;;;;;2.65;0.80;;;;;;;20.04;66.48;99756.26;1667948;83;21034;-53
2021/06/17 04:09:59;;;;;;;2.05;0.78;;;;;;;20.11;66.36;99753.85;1761993;80;21065;-55
2021/06/17 04:12:28;;;;;;;4.50;0.82;;;;;;;20.16;66.45;99746.97;1764509;80;21674;-55
2021/06/17 04:14:57;;;;;;;1.40;0.70;;;;;;;20.23;66.41;99752.79;1735346;80;21022;-55
2021/06/17 04:17:27;;;;;;;2.65;0.90;;;;;;;20.29;66.28;99749.50;1759878;80;21053;-56
2021/06/17 04:19:53;;;;;;;1.00;0.60;;;;;;;20.32;66.18;99754.22;1763284;80;21594;-53
2021/06/17 04:22:21;;;;;;;0.82;0.78;;;;;;;20.39;66.25;99749.96;1765413;80;21802;-55
2021/06/17 04:24:51;;;;;;;3.50;0.80;;;;;;;20.46;66.02;99746.17;1764650;80;21339;-54
2021/06/17 04:27:19;;;;;;;1.85;0.82;;;;;;;20.53;65.75;99750.09;1766779;80;21559;-55
2021/06/17 04:29:46;;;;;;;0.80;0.78;;;;;;;20.57;65.61;99747.95;1766078;80;20867;-53
2021/06/17 04:32:13;;;;;;;1.12;0.85;;;;;;;20.58;65.77;99744.23;1762989;80;21538;-54
2021/06/17 04:34:41;;;;;;;2.52;0.80;;;;;;;20.61;65.75;99744.80;1763713;80;21087;-54
2021/06/17 04:37:09;;;;;;;1.25;0.78;;;;;;;20.66;65.52;99736.20;1763778;80;21510;-54
2021/06/17 04:39:36;;;;;;;1.40;0.80;;;;;;;20.72;65.29;99739.73;1759719;80;21101;-53
2021/06/17 04:42:04;;;;;;;4.12;0.88;;;;;;;20.78;65.13;99737.80;1739268;80;21371;-54
2021/06/17 04:44:30;;;;;;;1.05;0.85;;;;;;;20.83;65.15;99733.30;1763012;80;21127;-54
2021/06/17 04:46:56;;;;;;;1.45;0.80;;;;;;;20.87;65.28;99732.86;1764877;80;21070;-54
2021/06/17 04:49:23;;;;;;;1.37;0.90;;;;;;;20.93;64.90;99736.40;1761518;80;21078;-53
2021/06/17 04:51:49;;;;;;;1.57;0.80;;;;;;;21.00;65.01;99743.57;1760323;80;21042;-55
2021/06/17 04:54:18;;;;;;;1.22;0.90;;;;;;;21.02;64.73;99745.64;1758401;80;21093;-55
2021/06/17 04:56:46;;;;;;;1.00;0.70;;;;;;;21.04;64.67;99755.45;1763211;80;21974;-54
2021/06/17 04:59:14;;;;;;;0.98;0.80;;;;;;;21.09;64.92;99760.02;1765917;80;21031;-54
2021/06/17 05:01:41;;;;;;;1.85;0.80;;;;;;;21.15;64.50;99757.21;1706558;82;21530;-53
2021/06/17 05:04:08;;;;;;;1.55;0.80;;;;;;;21.19;64.51;99763.28;1762468;80;21484;-54
2021/06/17 05:06:37;;;;;;;1.65;0.82;;;;;;;21.22;64.60;99763.88;1765447;79;20915;-56
2021/06/17 05:11:51;;;;;;;1.30;0.90;;;;;;;21.25;64.16;99776.43;1768874;79;21047;-54
2021/06/17 05:14:19;;;;;;;2.05;0.95;;;;;;;21.24;64.37;99774.20;1766637;80;21111;-54
2021/06/17 05:16:47;;;;;;;1.55;0.88;;;;;;;21.26;64.45;99780.91;1768216;80;20942;-55
2021/06/17 05:19:15;;;;;;;7.45;0.80;;;;;;;21.26;64.22;99781.77;1766523;80;20982;-54
2021/06/17 05:21:42;;;;;;;1.52;0.72;;;;;;;21.32;64.24;99788.04;1768150;80;21002;-57
2021/06/17 05:24:08;;;;;;;3.55;1.00;;;;;;;21.37;64.06;99784.86;1766463;80;20920;-55
2021/06/17 05:26:36;;;;;;;3.87;0.80;;;;;;;21.42;64.19;99788.06;1765574;79;21790;-54
2021/06/17 05:29:03;;;;;;;4.12;1.10;;;;;;;21.50;64.48;99797.80;1769199;80;21410;-54
2021/06/17 05:31:30;;;;;;;5.22;1.07;;;;;;;21.57;64.15;99798.95;1766129;80;20881;-55
2021/06/17 05:33:56;;;;;;;3.27;1.02;;;;;;;21.62;63.92;99802.12;1763999;80;20919;-56
2021/06/17 05:36:24;;;;;;;2.15;0.90;;;;;;;21.68;63.91;99794.72;1765946;80;21452;-55
2021/06/17 05:38:51;;;;;;;3.27;0.82;;;;;;;21.74;63.69;99795.51;1767117;80;21105;-55
2021/06/17 05:41:18;;;;;;;3.12;0.90;;;;;;;21.80;63.85;99792.18;1770166;79;20942;-56
2021/06/17 05:43:45;;;;;;;2.27;0.70;;;;;;;21.88;63.09;99801.91;1768567;80;21058;-55
2021/06/17 05:46:11;;;;;;;2.55;0.80;;;;;;;21.95;63.45;99804.94;1732425;82;21007;-55
2021/06/17 05:48:38;;;;;;;3.20;0.90;;;;;;;22.04;63.09;99814.19;1730979;82;21578;-55
2021/06/17 05:51:05;;;;;;;5.83;1.00;;;;;;;22.11;62.68;99803.91;1767339;80;21122;-54
2021/06/17 05:53:31;;;;;;;1.57;0.90;;;;;;;22.16;62.27;99804.31;1763186;80;21124;-54
2021/06/17 05:55:58;;;;;;;3.75;1.12;;;;;;;22.20;62.17;99802.99;1726112;82;21054;-57
2021/06/17 05:58:24;;;;;;;3.50;0.98;;;;;;;22.24;62.30;99807.19;1762993;79;21552;-56
2021/06/17 06:00:51;;;;;;;1.67;0.90;;;;;;;22.28;62.48;99803.66;1762769;80;21803;-56
2021/06/17 06:03:18;;;;;;;4.12;1.00;;;;;;;22.32;62.27;99802.84;1761974;80;21483;-55
2021/06/17 06:05:44;;;;;;;4.15;1.82;;;;;;;22.35;62.14;99808.04;1761364;80;21097;-56
2021/06/17 06:08:11;;;;;;;3.58;0.90;;;;;;;22.38;62.44;99804.98;1764179;80;21074;-56
2021/06/17 06:10:40;;;;;;;0.80;0.75;;;;;;;22.45;62.72;99808.89;1767209;80;20904;-54
2021/06/17 06:13:06;;;;;;;2.83;0.75;;;;;;;22.52;62.15;99808.15;1765462;79;21562;-54
2021/06/17 06:15:34;;;;;;;2.60;0.80;;;;;;;22.57;62.23;99805.81;1763393;80;21518;-58
2021/06/17 06:18:11;;;;;;;2.98;0.80;;;;;;;22.64;62.14;99806.94;1766524;79;21578;-54
2021/06/17 06:20:39;;;;;;;3.33;0.90;;;;;;;22.72;62.05;99814.42;1764035;79;21136;-53
2021/06/17 06:23:07;;;;;;;3.98;0.85;;;;;;;22.78;62.08;99818.50;1765049;80;21085;-55
2021/06/17 06:25:34;;;;;;;4.08;0.90;;;;;;;22.85;61.87;99815.00;1766036;79;20974;-57
2021/06/17 06:28:00;;;;;;;1.12;0.98;;;;;;;22.91;61.21;99813.52;1766192;80;21846;-55
2021/06/17 06:30:28;;;;;;;2.40;0.98;;;;;;;22.93;61.05;99810.98;1764416;80;21089;-57
2021/06/17 06:32:56;;;;;;;1.15;1.02;;;;;;;22.96;60.76;99809.83;1763796;79;21034;-53
2021/06/17 06:35:22;;;;;;;5.75;1.25;;;;;;;22.96;60.45;99809.83;1765918;80;21102;-54
2021/06/17 06:37:50;;;;;;;3.50;1.62;;;;;;;22.96;60.82;99806.58;1767149;79;21467;-56
2021/06/17 06:40:17;;;;;;;2.42;0.95;;;;;;;23.03;61.52;99808.71;1767213;79;22328;-56
2021/06/17 06:42:44;;;;;;;2.40;1.00;;;;;;;23.08;60.68;99807.23;1766339;80;21689;-53
2021/06/17 06:45:12;;;;;;;2.02;0.95;;;;;;;23.13;60.60;99810.40;1766963;79;21048;-57
2021/06/17 06:47:38;;;;;;;2.27;1.07;;;;;;;23.20;60.87;99812.89;1763228;80;21101;-56
2021/06/17 06:50:07;;;;;;;6.05;1.00;;;;;;;23.28;60.34;99822.59;1765717;80;21160;-53
2021/06/17 06:52:34;;;;;;;5.87;1.10;;;;;;;23.33;60.38;99812.51;1765996;79;21156;-54
2021/06/17 06:55:00;;;;;;;2.47;1.10;;;;;;;23.38;60.03;99813.80;1761680;79;21035;-57
2021/06/17 06:57:27;;;;;;;2.83;0.90;;;;;;;23.44;59.62;99819.68;1763157;79;21093;-56
2021/06/17 06:59:54;;;;;;;3.05;0.90;;;;;;;23.47;59.06;99808.39;1768096;80;21037;-55
2021/06/17 07:02:20;;;;;;;1.22;1.00;;;;;;;23.51;59.52;99813.44;1766611;79;21082;-56
2021/06/17 07:04:47;;;;;;;1.98;0.90;;;;;;;23.59;59.46;99814.03;1767271;80;21117;-57
2021/06/17 07:07:14;;;;;;;3.37;0.80;;;;;;;23.67;59.60;99810.87;1765878;80;21128;-58
2021/06/17 07:09:40;;;;;;;2.22;0.80;;;;;;;23.75;58.55;99816.95;1760888;80;21513;-58
2021/06/17 07:12:07;;;;;;;2.62;0.98;;;;;;;23.80;58.31;99823.38;1766560;80;21085;-58
2021/06/17 07:14:34;;;;;;;2.83;1.55;;;;;;;23.84;58.56;99820.14;1769040;80;21018;-56
2021/06/17 07:17:00;;;;;;;3.37;0.90;;;;;;;23.90;58.63;99825.54;1766116;80;21548;-55
2021/06/17 07:19:26;;;;;;;6.50;1.30;;;;;;;23.93;58.17;99828.82;1765332;80;21065;-56
2021/06/17 07:21:53;;;;;;;4.97;1.12;;;;;;;23.96;57.90;99831.27;1765449;79;21085;-55
2021/06/17 07:24:20;;;;;;;1.50;0.90;;;;;;;23.98;57.88;99823.73;1766422;80;21101;-56
2021/06/17 07:26:50;;;;;;;3.17;1.00;;;;;;;24.01;57.98;99833.53;1759505;80;21061;-55
2021/06/17 07:29:16;;;;;;;3.98;0.95;;;;;;;24.06;58.07;99830.68;1763698;79;21949;-55
2021/06/17 07:31:43;;;;;;;1.67;0.90;;;;;;;24.16;57.92;99834.69;1763718;80;21333;-53
2021/06/17 07:34:11;;;;;;;2.10;0.80;;;;;;;24.26;57.82;99826.39;1762959;80;21039;-54
2021/06/17 07:36:40;;;;;;;2.60;1.20;;;;;;;24.32;57.18;99828.52;1766450;80;21122;-55
2021/06/17 07:39:09;;;;;;;1.40;0.93;;;;;;;24.39;57.48;99829.09;1729986;82;20910;-59
2021/06/17 07:41:36;;;;;;;2.85;0.90;;;;;;;24.46;57.43;99826.56;1767353;80;21043;-57
2021/06/17 07:44:03;;;;;;;4.72;1.10;;;;;;;24.51;56.98;99840.17;1764643;80;20998;-54
2021/06/17 07:46:30;;;;;;;1.25;1.10;;;;;;;24.53;56.60;99840.02;1764852;80;21082;-54
2021/06/17 07:48:58;;;;;;;2.72;1.00;;;;;;;24.56;56.99;99834.20;1762427;79;21114;-57
2021/06/17 07:51:28;;;;;;;1.98;1.00;;;;;;;24.63;56.27;99843.54;1764056;80;21078;-53
2021/06/17 07:53:59;;;;;;;3.47;1.00;;;;;;;24.67;56.23;99839.96;1764414;80;21201;-57
2021/06/17 07:56:23;;;;;;;4.25;1.00;;;;;;;24.67;55.32;99839.42;1760845;80;21054;-56
2021/06/17 07:58:50;;;;;;;2.47;1.20;;;;;;;24.66;56.08;99845.98;1756121;79;21090;-58
2021/06/17 08:01:16;;;;;;;2.62;1.32;;;;;;;24.68;56.25;99844.41;1756133;80;21333;-57
2021/06/17 08:03:43;;;;;;;3.47;0.90;;;;;;;24.69;56.04;99860.77;1756149;80;21300;-54
2021/06/17 08:06:10;;;;;;;1.12;1.00;;;;;;;24.72;55.88;99849.96;1720970;82;21565;-57
2021/06/17 08:08:36;;;;;;;5.20;1.22;;;;;;;24.76;56.29;99852.72;1753492;80;22092;-57
2021/06/17 08:11:04;;;;;;;2.65;0.90;;;;;;;24.80;56.43;99855.52;1756681;80;21439;-57
2021/06/17 08:13:31;;;;;;;4.75;1.00;;;;;;;24.84;55.48;99870.67;1755695;80;21552;-55
2021/06/17 08:15:57;;;;;;;4.17;1.00;;;;;;;24.84;54.47;99858.28;1754969;80;21054;-56
2021/06/17 08:18:24;;;;;;;2.20;0.90;;;;;;;24.83;55.02;99853.32;1754552;79;21192;-58
2021/06/17 08:23:24;;;;;;;1.45;0.80;;;;;;;24.94;55.06;99854.94;1844919;75;23539;-55
2021/06/17 08:25:50;;;;;;;4.92;0.98;;;;;;;24.95;55.27;99848.92;1810489;77;21482;-57
2021/06/17 08:28:17;;;;;;;5.22;1.00;;;;;;;25.00;54.70;99848.80;1807301;77;21104;-55
2021/06/17 08:30:43;;;;;;;4.12;0.70;;;;;;;25.06;54.70;99847.27;1806656;77;21008;-58
2021/06/17 08:33:09;;;;;;;3.17;0.75;;;;;;;25.12;55.36;99848.84;1801980;77;21048;-58
2021/06/17 08:35:36;;;;;;;2.45;0.75;;;;;;;25.21;55.24;99849.75;1767469;78;21624;-56
2021/06/17 08:38:02;;;;;;;4.75;1.17;;;;;;;25.30;54.58;99847.38;1765042;78;21004;-59
2021/06/17 08:40:31;;;;;;;2.52;0.60;;;;;;;25.38;54.64;99852.06;1766829;78;21549;-55
2021/06/17 08:42:58;;;;;;;4.35;0.80;;;;;;;25.48;54.36;99846.77;1764228;78;21044;-57
2021/06/17 08:45:24;;;;;;;4.85;0.90;;;;;;;25.57;54.15;99850.42;1760073;79;21479;-56
2021/06/17 08:47:51;;;;;;;2.58;0.85;;;;;;;25.61;53.22;99851.83;1736623;80;21118;-59
2021/06/17 08:50:17;;;;;;;0.85;0.80;;;;;;;25.60;53.22;99852.34;1731895;79;21079;-60
2021/06/17 08:52:46;;;;;;;1.20;0.78;;;;;;;25.62;53.42;99860.45;1740282;79;21132;-56
2021/06/17 08:55:23;;;;;;;3.58;1.47;;;;;;;25.61;53.11;99851.31;1739497;79;20937;-59
2021/06/17 08:57:52;;;;;;;1.40;0.75;;;;;;;25.59;53.18;99859.42;1736784;79;21068;-56
2021/06/17 09:00:28;;;;;;;3.45;0.95;;;;;;;25.60;53.71;99859.78;1736342;79;21151;-59
2021/06/17 09:03:02;;;;;;;3.98;0.75;;;;;;;25.63;53.24;99855.28;1741285;79;21685;-60
2021/06/17 09:05:29;;;;;;;0.65;0.60;;;;;;;25.61;52.85;99875.25;1736615;79;21136;-56
2021/06/17 09:10:40;;;;;;;2.80;0.80;;;;;;;25.64;53.51;99863.91;1791091;78;23046;-54
2021/06/17 09:13:09;;;;;;;1.35;0.90;;;;;;;25.60;53.65;99860.61;1764423;79;21951;-56
2021/06/17 09:15:43;;;;;;;1.70;0.80;;;;;;;25.61;53.49;99860.96;1766589;79;21082;-55
2021/06/17 09:18:30;;;;;;;1.05;0.90;;;;;;;25.59;53.61;99863.05;1766420;79;28681;-56
2021/06/17 09:21:01;;;;;;;2.25;0.85;;;;;;;25.56;53.54;99862.47;1771148;79;21398;-57
2021/06/17 09:23:33;;;;;;;2.10;0.70;;;;;;;25.57;53.18;99860.93;1771469;79;21492;-53
2021/06/17 09:26:09;;;;;;;5.15;0.70;;;;;;;25.62;53.51;99863.20;1768856;79;20962;-61
2021/06/17 09:29:11;;;;;;;6.10;0.90;;;;;;;25.68;51.98;99861.18;1770406;79;21130;-58
2021/06/17 09:31:28;;;;;;;2.00;0.70;;;;;;;25.83;52.51;99869.66;1761936;79;21008;-61
2021/06/17 09:33:54;;;;;;;3.92;0.70;;;;;;;25.92;50.46;99859.86;1769192;79;22328;-58
2021/06/17 09:36:23;;;;;;;1.45;0.70;;;;;;;26.02;49.69;99864.36;1768199;79;21954;-60
2021/06/17 09:38:52;;;;;;;6.83;0.90;;;;;;;26.06;49.93;99878.14;1769258;79;21050;-58
2021/06/17 09:41:34;;;;;;;2.60;0.70;;;;;;;26.09;49.42;99860.74;1765105;79;21483;-61
2021/06/17 09:44:01;;;;;;;2.27;0.70;;;;;;;26.17;49.88;99863.51;1741402;80;22290;-58
2021/06/17 09:46:27;;;;;;;1.55;1.02;;;;;;;26.28;49.75;99862.35;1735926;80;21060;-60
2021/06/17 09:48:54;;;;;;;4.65;0.90;;;;;;;26.37;49.10;99853.88;1740631;80;21060;-57
2021/06/17 09:51:41;;;;;;;0.62;0.60;;;;;;;26.49;48.93;99863.20;1674342;83;21088;-60
2021/06/17 09:54:20;;;;;;;4.10;0.80;;;;;;;26.52;47.93;99856.83;1676793;83;21673;-57
2021/06/17 09:59:12;;;;;;;6.53;0.70;;;;;;;26.63;48.80;99856.45;1867620;75;22726;-58
2021/06/17 10:01:42;;;;;;;2.33;0.60;;;;;;;26.64;48.57;99848.52;1833586;77;21276;-54
2021/06/17 10:04:12;;;;;;;4.10;0.60;;;;;;;26.72;47.88;99858.68;1836851;77;21133;-58
2021/06/17 10:06:41;;;;;;;0.98;0.70;;;;;;;26.74;47.08;99858.00;1837422;77;20942;-54
2021/06/17 10:09:13;;;;;;;3.12;0.68;;;;;;;26.76;47.93;99857.31;1837669;77;21509;-55
2021/06/17 10:11:41;;;;;;;3.20;0.60;;;;;;;26.80;47.92;99849.00;1834361;77;20941;-58
2021/06/17 10:14:08;;;;;;;2.95;0.70;;;;;;;26.87;48.35;99851.95;1837407;77;21467;-56
2021/06/17 10:16:35;;;;;;;2.17;0.70;;;;;;;26.89;48.52;99847.95;1836181;77;21763;-53
2021/06/17 10:19:01;;;;;;;3.45;0.70;;;;;;;26.94;48.45;99850.23;1835300;77;21466;-52
2021/06/17 10:21:31;;;;;;;2.17;0.62;;;;;;;26.94;47.92;99846.95;1838782;77;21446;-55
2021/06/17 10:24:04;;;;;;;6.45;0.85;;;;;;;26.93;47.63;99847.98;1836231;77;22241;-56
2021/06/17 10:26:32;;;;;;;4.08;0.60;;;;;;;26.95;48.57;99851.96;1810319;77;21044;-55
2021/06/17 10:28:59;;;;;;;1.07;0.70;;;;;;;26.93;47.77;99849.37;1813278;77;21657;-56
2021/06/17 10:31:39;;;;;;;1.65;0.70;;;;;;;26.90;47.71;99837.25;1810416;77;21131;-54
2021/06/17 10:34:28;;;;;;;2.92;0.60;;;;;;;26.85;46.89;99849.36;1835057;76;21002;-54
2021/06/17 10:37:30;;;;;;;4.90;0.70;;;;;;;26.71;47.00;99859.20;1836423;77;21586;-53
2021/06/17 10:40:11;;;;;;;5.65;0.60;;;;;;;26.64;47.56;99849.03;1839587;76;21519;-52
2021/06/17 10:42:42;;;;;;;1.55;0.60;;;;;;;26.64;48.73;99838.85;1838875;77;21215;-55
2021/06/17 10:45:34;;;;;;;1.42;0.60;;;;;;;26.72;48.12;99843.50;1837256;77;21566;-54
2021/06/17 10:48:07;;;;;;;3.87;0.70;;;;;;;26.80;47.69;99839.34;1838023;77;21339;-55
2021/06/17 10:50:49;;;;;;;0.50;0.50;;;;;;;26.88;48.22;99836.55;1840057;76;20992;-55
2021/06/17 10:53:39;;;;;;;1.40;0.60;;;;;;;26.88;47.58;99818.60;1834706;77;21094;-55
2021/06/17 10:56:16;;;;;;;4.65;0.60;;;;;;;26.86;46.45;99828.13;1837148;77;21118;-55
2021/06/17 10:58:50;;;;;;;5.08;0.65;;;;;;;26.74;46.95;99821.58;1839238;76;20952;-57
2021/06/17 11:01:41;;;;;;;2.60;0.60;;;;;;;26.72;47.36;99822.27;1843591;77;20933;-56
2021/06/17 11:04:20;;;;;;;0.40;0.40;;;;;;;26.75;47.70;99816.41;1841210;76;20907;-54
2021/06/17 11:07:05;;;;;;;1.02;0.90;;;;;;;26.85;47.40;99819.50;1839891;76;20901;-55
2021/06/17 11:09:46;;;;;;;3.02;0.70;;;;;;;27.08;47.21;99797.86;1838511;76;22193;-59
2021/06/17 11:12:25;;;;;;;2.77;0.60;;;;;;;27.08;47.21;99797.86;1838771;76;20925;-58
2021/06/17 11:14:56;;;;;;;1.22;0.60;;;;;;;27.23;46.49;99794.34;1838105;77;21021;-58
2021/06/17 11:17:36;;;;;;;2.25;1.05;;;;;;;27.34;46.96;99802.25;1837975;76;20941;-53
2021/06/17 11:20:19;;;;;;;1.20;0.50;;;;;;;27.41;45.02;99800.48;1840388;77;20933;-59
2021/06/17 11:22:57;;;;;;;2.98;0.50;;;;;;;27.44;44.92;99792.70;1837538;76;21927;-57
2021/06/17 11:25:21;;;;;;;1.98;0.50;;;;;;;27.49;45.13;99791.62;1838909;76;21447;-54
2021/06/17 11:27:57;;;;;;;1.05;0.53;;;;;;;27.49;45.76;99790.76;1799667;77;20890;-58
2021/06/17 11:30:46;;;;;;;0.80;0.65;;;;;;;27.46;46.12;99786.48;1837482;77;20894;-54
2021/06/17 11:33:24;;;;;;;5.22;0.70;;;;;;;27.38;46.64;99792.05;1838634;77;20902;-56
2021/06/17 11:36:03;;;;;;;1.90;0.60;;;;;;;27.30;46.55;99791.23;1839920;77;21692;-57
2021/06/17 11:38:34;;;;;;;1.50;0.60;;;;;;;27.24;46.07;99789.16;1835952;77;20937;-55
2021/06/17 11:41:18;;;;;;;1.30;0.65;;;;;;;27.19;45.32;99779.18;1838936;76;20938;-57
2021/06/17 11:43:55;;;;;;;1.98;0.60;;;;;;;27.19;45.53;99783.33;1832851;77;20969;-55
2021/06/17 11:46:31;;;;;;;2.05;0.60;;;;;;;27.28;46.06;99785.88;1836884;77;21506;-56
2021/06/17 11:49:01;;;;;;;0.70;0.60;;;;;;;27.35;46.17;99786.88;1839395;77;21113;-56
2021/06/17 11:51:53;;;;;;;2.12;0.88;;;;;;;27.39;45.54;99782.69;1831842;77;21033;-55
2021/06/17 11:54:21;;;;;;;1.45;0.50;;;;;;;27.34;44.83;99793.95;1835377;77;21024;-54
2021/06/17 11:56:50;;;;;;;3.65;0.53;;;;;;;27.26;46.57;99799.00;1837891;76;21155;-54